Time;durP1;ratioP1;P1;durP2;ratioP2;P2;SDS_P1;SDS_P2;PMS_P1;PMS_P2;Temp;Humidity;BMP_temperature;BMP_pressure;BME280_temperature;BME280_humidity;BME280_pressure;Samples;Min_cycle;Max_cycle;Signal;HPM_P1;HPM_P2
2022/03/20 00:00:09;;;;;;;18.07;11.17;;;4.40;64.90;;;;;;5096197;28;20290;-64
2022/03/20 00:02:36;;;;;;;18.67;11.57;;;4.40;65.40;;;;;;5096049;28;20182;-64
2022/03/20 00:05:02;;;;;;;18.60;10.87;;;4.30;66.10;;;;;;5096973;28;20175;-63
2022/03/20 00:07:29;;;;;;;21.77;12.00;;;4.30;66.90;;;;;;5095885;28;20154;-64
2022/03/20 00:09:55;;;;;;;21.50;12.00;;;4.20;67.60;;;;;;5097303;28;20185;-64
2022/03/20 00:12:20;;;;;;;19.00;10.50;;;4.20;68.30;;;;;;5102687;28;20180;-64
2022/03/20 00:14:46;;;;;;;19.80;11.13;;;4.20;69.20;;;;;;5086609;28;20187;-64
2022/03/20 00:17:13;;;;;;;16.77;10.47;;;4.00;69.90;;;;;;5086916;28;20172;-65
2022/03/20 00:19:39;;;;;;;20.23;11.13;;;3.90;70.90;;;;;;5102127;28;20157;-65
2022/03/20 00:22:05;;;;;;;20.53;10.87;;;3.90;72.40;;;;;;5103765;28;20554;-63
2022/03/20 00:24:32;;;;;;;20.53;11.40;;;3.70;71.90;;;;;;5103003;28;20167;-64
2022/03/20 00:26:58;;;;;;;20.03;11.43;;;3.70;72.80;;;;;;5081247;28;20174;-65
2022/03/20 00:29:25;;;;;;;20.33;11.23;;;3.70;73.00;;;;;;5099045;28;20169;-65
2022/03/20 00:31:51;;;;;;;20.73;11.07;;;3.80;73.10;;;;;;5099124;28;20159;-64
2022/03/20 00:34:17;;;;;;;19.07;10.97;;;3.70;73.90;;;;;;5080906;28;20179;-65
2022/03/20 00:36:42;;;;;;;22.03;11.23;;;3.60;73.40;;;;;;5101076;28;20644;-64
2022/03/20 00:39:08;;;;;;;23.37;10.53;;;3.60;74.40;;;;;;5096291;28;20263;-64
2022/03/20 00:41:34;;;;;;;18.97;10.10;;;3.60;75.10;;;;;;5095367;28;20258;-64
2022/03/20 00:43:59;;;;;;;19.77;10.93;;;3.60;75.30;;;;;;5095068;28;20252;-64
2022/03/20 00:46:27;;;;;;;23.20;10.37;;;3.60;74.90;;;;;;5094736;28;20174;-64
2022/03/20 00:48:53;;;;;;;20.20;10.00;;;3.60;74.60;;;;;;5076362;28;20250;-65
2022/03/20 00:51:19;;;;;;;16.60;10.83;;;3.60;75.50;;;;;;5095370;28;20576;-65
2022/03/20 00:53:45;;;;;;;18.87;10.67;;;3.60;74.80;;;;;;5094689;28;20208;-64
2022/03/20 00:56:12;;;;;;;16.97;10.20;;;3.70;75.00;;;;;;5095182;28;20196;-63
2022/03/20 00:58:38;;;;;;;18.03;9.93;;;3.70;74.70;;;;;;5100619;28;20162;-65
2022/03/20 01:01:04;;;;;;;18.33;10.50;;;3.50;75.70;;;;;;5094653;28;20171;-63
2022/03/20 01:03:30;;;;;;;18.70;10.27;;;3.50;76.20;;;;;;5094503;28;20196;-64
2022/03/20 01:05:56;;;;;;;19.27;10.93;;;3.40;77.50;;;;;;5076716;28;20257;-63
2022/03/20 01:08:21;;;;;;;19.07;10.57;;;3.30;77.70;;;;;;5094692;28;20169;-64
2022/03/20 01:10:47;;;;;;;18.67;10.73;;;3.50;77.50;;;;;;5094169;28;20271;-65
2022/03/20 01:13:13;;;;;;;25.97;10.40;;;3.50;77.20;;;;;;5076332;28;20233;-65
2022/03/20 01:15:38;;;;;;;17.80;10.37;;;3.40;77.40;;;;;;5075176;28;20524;-64
2022/03/20 01:18:04;;;;;;;17.67;10.37;;;3.30;77.60;;;;;;5094241;28;20204;-62
2022/03/20 01:20:29;;;;;;;16.13;10.40;;;3.20;78.00;;;;;;5094130;28;20159;-63
2022/03/20 01:22:55;;;;;;;17.10;10.30;;;3.30;78.60;;;;;;5093937;28;20632;-64
2022/03/20 01:25:21;;;;;;;18.50;11.33;;;3.20;79.40;;;;;;5076068;28;20269;-63
2022/03/20 01:27:47;;;;;;;18.73;10.93;;;3.20;79.10;;;;;;5094287;28;20578;-64
2022/03/20 01:30:12;;;;;;;20.70;10.40;;;3.20;79.60;;;;;;5093979;28;20161;-64
2022/03/20 01:32:38;;;;;;;18.57;9.57;;;3.40;78.00;;;;;;5094148;28;20274;-64
2022/03/20 01:35:04;;;;;;;18.90;10.90;;;3.30;79.00;;;;;;5093688;28;20522;-65
2022/03/20 01:37:30;;;;;;;18.83;11.03;;;3.30;80.30;;;;;;5094315;28;20555;-64
2022/03/20 01:39:55;;;;;;;16.90;10.20;;;3.30;79.80;;;;;;5093977;28;20169;-63
2022/03/20 01:42:22;;;;;;;17.80;9.67;;;3.30;77.60;;;;;;5094102;28;20203;-64
2022/03/20 01:44:48;;;;;;;21.83;10.57;;;3.30;78.60;;;;;;5093740;28;20154;-63
2022/03/20 01:47:14;;;;;;;16.13;9.83;;;3.30;77.60;;;;;;5093890;28;20220;-64
2022/03/20 01:49:39;;;;;;;21.17;10.70;;;3.30;79.00;;;;;;5093946;28;20159;-63
2022/03/20 01:52:14;;;;;;;17.53;10.27;;;3.30;79.00;;;;;;5094273;28;20166;-64
2022/03/20 01:54:45;;;;;;;21.17;10.17;;;3.30;78.20;;;;;;5093653;28;20156;-63
2022/03/20 01:57:16;;;;;;;19.60;10.63;;;3.40;78.80;;;;;;5094067;28;20181;-65
2022/03/20 01:59:45;;;;;;;16.90;10.50;;;3.40;79.10;;;;;;5093430;28;20161;-65
2022/03/20 02:02:11;;;;;;;19.17;11.10;;;3.30;79.50;;;;;;5074951;28;20217;-66
2022/03/20 02:04:38;;;;;;;16.97;10.20;;;3.30;80.90;;;;;;5093421;28;20184;-63
2022/03/20 02:07:04;;;;;;;17.20;11.17;;;3.20;81.30;;;;;;5093809;28;20172;-64
2022/03/20 02:09:31;;;;;;;21.47;11.17;;;3.30;81.40;;;;;;5093219;28;20193;-63
2022/03/20 02:11:58;;;;;;;17.67;11.07;;;3.20;81.90;;;;;;5093481;28;20567;-65
2022/03/20 02:14:25;;;;;;;18.73;11.20;;;3.30;82.20;;;;;;5093970;28;20190;-64
2022/03/20 02:16:51;;;;;;;19.93;10.07;;;3.30;82.90;;;;;;5094444;28;20544;-63
2022/03/20 02:19:16;;;;;;;20.30;11.27;;;3.20;83.70;;;;;;5076922;28;20172;-65
2022/03/20 02:21:44;;;;;;;18.77;11.27;;;3.20;82.60;;;;;;5100598;28;20171;-64
2022/03/20 02:24:34;;;;;;;20.53;11.20;;;3.30;82.50;;;;;;5097727;28;20194;-63
2022/03/20 02:27:12;;;;;;;20.70;12.47;;;3.20;82.80;;;;;;5094337;28;20175;-65
2022/03/20 02:29:39;;;;;;;19.97;10.40;;;3.30;82.60;;;;;;5097337;28;20637;-64
2022/03/20 02:32:07;;;;;;;16.63;10.00;;;3.30;82.50;;;;;;5097619;28;20205;-63
2022/03/20 02:34:34;;;;;;;18.27;10.43;;;3.30;82.30;;;;;;5097860;28;20162;-64
2022/03/20 02:37:01;;;;;;;18.63;9.80;;;3.10;82.30;;;;;;5097635;28;20184;-64
2022/03/20 02:39:27;;;;;;;19.57;10.90;;;3.20;82.80;;;;;;5097185;28;20258;-64
2022/03/20 02:41:54;;;;;;;22.57;10.10;;;3.20;82.60;;;;;;5097666;28;20229;-63
2022/03/20 02:44:41;;;;;;;15.67;9.67;;;3.10;83.00;;;;;;5097771;28;20184;-63
2022/03/20 02:47:07;;;;;;;21.37;10.10;;;3.10;83.40;;;;;;5100201;28;20175;-64
2022/03/20 02:49:37;;;;;;;16.93;10.63;;;3.20;83.70;;;;;;5102041;28;20618;-64
2022/03/20 02:52:03;;;;;;;16.70;9.37;;;3.10;84.10;;;;;;5082070;28;20181;-65
2022/03/20 02:54:29;;;;;;;15.97;9.53;;;3.10;84.20;;;;;;5099632;28;20179;-65
2022/03/20 02:56:54;;;;;;;18.70;10.87;;;3.10;83.90;;;;;;5096694;28;20163;-65
2022/03/20 02:59:20;;;;;;;19.97;10.20;;;3.20;84.10;;;;;;5096788;28;20164;-64
2022/03/20 03:01:46;;;;;;;19.47;9.93;;;3.10;84.30;;;;;;5096722;28;20158;-64
2022/03/20 03:04:12;;;;;;;18.70;10.77;;;3.10;84.50;;;;;;5096260;28;20192;-64
2022/03/20 03:06:37;;;;;;;17.90;10.53;;;3.20;85.70;;;;;;5096689;28;20241;-64
2022/03/20 03:11:47;;;;;;;17.43;9.73;;;3.10;87.00;;;;;;5096450;28;20155;-64
2022/03/20 03:16:57;;;;;;;21.50;9.80;;;3.10;87.60;;;;;;5096361;28;20154;-64
2022/03/20 03:19:23;;;;;;;19.03;9.50;;;3.10;88.20;;;;;;5097021;28;20251;-64
2022/03/20 03:21:48;;;;;;;15.03;10.20;;;3.10;86.70;;;;;;5096830;28;20159;-65
2022/03/20 03:24:14;;;;;;;17.83;10.07;;;3.10;87.80;;;;;;5096594;28;20641;-64
2022/03/20 03:26:40;;;;;;;22.60;9.90;;;3.10;87.50;;;;;;5096196;28;20163;-64
2022/03/20 03:29:06;;;;;;;16.87;9.97;;;3.10;85.40;;;;;;5096474;28;20162;-64
2022/03/20 03:31:32;;;;;;;17.13;9.73;;;3.20;85.20;;;;;;5078596;28;20189;-64
2022/03/20 03:36:42;;;;;;;19.30;10.07;;;3.00;85.40;;;;;;5095792;28;20237;-64
2022/03/20 03:39:09;;;;;;;18.30;9.73;;;3.00;88.40;;;;;;5095244;28;20220;-66
2022/03/20 03:41:36;;;;;;;19.60;11.17;;;3.00;89.20;;;;;;5096896;28;20503;-64
2022/03/20 03:44:01;;;;;;;20.30;10.40;;;2.90;91.10;;;;;;5077625;28;20211;-65
2022/03/20 03:46:27;;;;;;;17.07;10.50;;;2.90;90.80;;;;;;5096707;28;20165;-64
2022/03/20 03:48:53;;;;;;;21.77;9.97;;;2.80;90.70;;;;;;5098723;28;20164;-64
2022/03/20 03:51:18;;;;;;;15.90;9.17;;;2.80;91.10;;;;;;5095974;28;20149;-63
2022/03/20 03:53:44;;;;;;;16.47;9.63;;;2.80;90.90;;;;;;5095796;28;20174;-64
2022/03/20 03:56:10;;;;;;;18.13;9.10;;;2.80;91.20;;;;;;5095751;28;20174;-65
2022/03/20 03:58:35;;;;;;;15.10;9.43;;;2.60;91.80;;;;;;5095512;28;20219;-64
2022/03/20 04:01:01;;;;;;;20.80;9.77;;;2.60;92.20;;;;;;5095755;28;20170;-64
2022/03/20 04:03:27;;;;;;;19.57;9.43;;;2.60;91.90;;;;;;5095074;28;20187;-63
2022/03/20 04:05:53;;;;;;;16.53;9.63;;;2.60;91.70;;;;;;5095355;28;20174;-63
2022/03/20 04:08:18;;;;;;;17.57;9.70;;;2.60;91.30;;;;;;5095544;28;20159;-63
2022/03/20 04:10:44;;;;;;;19.87;9.93;;;2.60;91.50;;;;;;5095315;28;20164;-65
2022/03/20 04:13:10;;;;;;;15.73;9.27;;;2.60;91.70;;;;;;5096096;28;20174;-65
2022/03/20 04:15:38;;;;;;;16.03;9.97;;;2.50;91.80;;;;;;5095779;28;20171;-65
2022/03/20 04:18:04;;;;;;;16.67;10.10;;;2.60;92.10;;;;;;5096143;28;20579;-65
2022/03/20 04:20:30;;;;;;;16.87;9.20;;;2.60;92.10;;;;;;5100038;28;20169;-64
2022/03/20 04:25:40;;;;;;;15.43;9.93;;;2.50;92.30;;;;;;5083358;28;20236;-63
2022/03/20 04:28:06;;;;;;;18.53;9.90;;;2.60;91.70;;;;;;5081378;28;20156;-64
2022/03/20 04:30:33;;;;;;;17.43;9.43;;;2.60;91.80;;;;;;5058934;28;20184;-64
2022/03/20 04:33:00;;;;;;;13.47;9.20;;;2.60;91.50;;;;;;5077395;28;20164;-64
2022/03/20 04:35:26;;;;;;;15.47;9.47;;;2.70;91.30;;;;;;5077205;28;20175;-64
2022/03/20 04:37:52;;;;;;;16.20;9.50;;;2.70;91.20;;;;;;5059644;28;20194;-64
2022/03/20 04:40:18;;;;;;;18.47;10.13;;;2.70;91.30;;;;;;5077780;28;20234;-63
2022/03/20 04:42:44;;;;;;;19.03;9.70;;;2.70;91.30;;;;;;5060907;28;20207;-64
2022/03/20 04:45:11;;;;;;;16.47;9.33;;;2.70;91.30;;;;;;5077130;28;20163;-64
2022/03/20 04:58:36;;;;;;;17.47;9.30;;;2.80;90.90;;;;;;5076116;28;20166;-64
2022/03/20 05:01:03;;;;;;;14.60;8.77;;;2.80;91.00;;;;;;5076190;28;20453;-64
2022/03/20 05:03:32;;;;;;;18.47;9.20;;;2.70;91.00;;;;;;5076417;28;20203;-63
2022/03/20 05:05:58;;;;;;;18.10;8.77;;;2.70;91.30;;;;;;5076815;28;20175;-65
2022/03/20 05:08:23;;;;;;;15.20;8.77;;;2.80;90.40;;;;;;5077808;28;20212;-65
2022/03/20 05:13:33;;;;;;;19.70;9.03;;;2.80;90.40;;;;;;5082940;28;20182;-65
2022/03/20 05:15:59;;;;;;;14.60;7.90;;;2.80;90.40;;;;;;5056718;28;20588;-64
2022/03/20 05:18:25;;;;;;;18.63;9.77;;;2.80;90.60;;;;;;5056284;28;20525;-64
2022/03/20 05:20:52;;;;;;;16.60;9.13;;;2.80;90.90;;;;;;5074290;28;20176;-64
2022/03/20 05:23:21;;;;;;;14.73;8.20;;;2.80;91.20;;;;;;5056423;28;20298;-64
2022/03/20 05:25:47;;;;;;;17.50;9.27;;;2.70;91.20;;;;;;5073877;28;20183;-63
2022/03/20 05:28:14;;;;;;;16.13;8.43;;;2.70;91.60;;;;;;5073843;28;20160;-65
2022/03/20 05:30:40;;;;;;;14.07;8.97;;;2.80;91.90;;;;;;5074129;28;20231;-67
2022/03/20 05:33:08;;;;;;;14.83;8.50;;;2.80;91.80;;;;;;5074164;28;20172;-65
2022/03/20 05:35:34;;;;;;;16.43;9.00;;;3.00;89.70;;;;;;5073317;28;20203;-64
2022/03/20 05:38:00;;;;;;;14.47;8.30;;;3.00;88.00;;;;;;5055813;28;20175;-64
2022/03/20 05:40:26;;;;;;;16.13;7.93;;;3.10;86.70;;;;;;5074069;28;20388;-63
2022/03/20 05:42:52;;;;;;;13.87;8.93;;;3.20;86.00;;;;;;5073938;28;20207;-66
2022/03/20 05:45:18;;;;;;;18.00;8.90;;;3.50;84.40;;;;;;5074637;28;20258;-64
2022/03/20 05:47:43;;;;;;;15.57;8.10;;;3.30;82.50;;;;;;5074921;28;20181;-65
2022/03/20 05:50:10;;;;;;;13.63;8.07;;;3.40;80.40;;;;;;5075403;28;20247;-65
2022/03/20 05:52:36;;;;;;;13.90;8.37;;;3.60;77.50;;;;;;5074904;28;20186;-65
2022/03/20 05:55:03;;;;;;;13.77;8.40;;;3.70;76.30;;;;;;5075916;28;20452;-66
2022/03/20 06:00:21;;;;;;;14.67;7.90;;;3.90;73.70;;;;;;5073984;28;20166;-64
2022/03/20 06:02:47;;;;;;;13.43;7.70;;;4.10;71.20;;;;;;5077690;28;20196;-64
2022/03/20 06:05:12;;;;;;;14.03;8.03;;;4.20;69.80;;;;;;5078072;28;20669;-63
2022/03/20 06:07:49;;;;;;;16.03;8.37;;;4.40;68.30;;;;;;5078365;28;20165;-64
2022/03/20 06:10:17;;;;;;;14.97;7.97;;;4.50;67.00;;;;;;5078738;28;20161;-64
2022/03/20 06:12:43;;;;;;;13.83;7.53;;;4.60;65.80;;;;;;5078614;28;20159;-64
2022/03/20 06:15:09;;;;;;;16.57;8.70;;;4.70;64.90;;;;;;5077766;28;20170;-64
2022/03/20 06:17:45;;;;;;;12.37;7.87;;;4.80;64.20;;;;;;5077356;28;20178;-64
2022/03/20 06:20:11;;;;;;;14.33;7.50;;;4.80;63.50;;;;;;5077056;28;20497;-64
2022/03/20 06:22:37;;;;;;;16.37;8.60;;;4.90;63.00;;;;;;5077082;28;20670;-64
2022/03/20 06:25:06;;;;;;;13.80;7.93;;;4.90;62.30;;;;;;5077399;28;20257;-64
2022/03/20 06:27:51;;;;;;;10.87;6.80;;;5.10;61.50;;;;;;5076764;28;20173;-63
2022/03/20 06:30:18;;;;;;;11.90;7.73;;;5.10;60.50;;;;;;5077108;28;20255;-65
2022/03/20 06:32:45;;;;;;;13.60;8.00;;;5.20;60.60;;;;;;5076918;28;20165;-64
2022/03/20 06:35:11;;;;;;;10.57;7.43;;;5.30;60.60;;;;;;5059647;28;20263;-64
2022/03/20 06:37:43;;;;;;;13.50;7.57;;;5.30;60.00;;;;;;5084018;28;20179;-63
2022/03/20 06:40:10;;;;;;;15.23;7.80;;;5.30;60.00;;;;;;5081437;28;20245;-63
2022/03/20 06:42:37;;;;;;;12.47;7.47;;;5.40;59.60;;;;;;5076270;28;20598;-64
2022/03/20 06:45:06;;;;;;;13.20;7.73;;;5.60;59.50;;;;;;5076620;28;20171;-63
2022/03/20 06:47:32;;;;;;;13.90;7.73;;;5.70;57.90;;;;;;5076502;28;20164;-64
2022/03/20 06:49:59;;;;;;;14.03;6.50;;;5.80;56.90;;;;;;5076444;28;20168;-65
2022/03/20 06:52:28;;;;;;;12.50;7.50;;;5.90;56.00;;;;;;5077400;28;20207;-65
2022/03/20 06:54:56;;;;;;;12.77;7.67;;;6.00;55.50;;;;;;5076290;28;20167;-64
2022/03/20 06:57:23;;;;;;;9.70;6.80;;;6.20;54.50;;;;;;5076010;28;20159;-64
2022/03/20 06:59:49;;;;;;;11.63;6.43;;;6.20;53.70;;;;;;5057934;28;20179;-64
2022/03/20 07:02:18;;;;;;;13.37;6.20;;;6.30;53.20;;;;;;5075932;28;20609;-65
2022/03/20 07:04:47;;;;;;;12.63;7.30;;;6.40;53.00;;;;;;5076011;28;20208;-64
2022/03/20 07:07:15;;;;;;;12.40;6.97;;;6.40;51.90;;;;;;5076171;28;20621;-64
2022/03/20 07:09:41;;;;;;;12.87;5.87;;;6.50;51.60;;;;;;5076176;28;20180;-63
2022/03/20 07:12:08;;;;;;;8.83;5.47;;;6.60;51.50;;;;;;5075610;28;20165;-64
2022/03/20 07:14:34;;;;;;;13.47;6.43;;;6.70;51.40;;;;;;5075470;28;20164;-64
2022/03/20 07:17:01;;;;;;;9.80;5.40;;;6.70;50.90;;;;;;5058161;28;20156;-64
2022/03/20 07:19:27;;;;;;;11.57;4.80;;;6.70;50.20;;;;;;5076008;28;20669;-64
2022/03/20 07:21:53;;;;;;;12.07;6.10;;;6.70;49.90;;;;;;5076662;28;20153;-64
2022/03/20 07:24:19;;;;;;;8.73;5.10;;;6.80;49.40;;;;;;5080186;28;20274;-64
2022/03/20 07:29:32;;;;;;;9.83;5.30;;;7.00;48.60;;;;;;5081499;28;20194;-63
2022/03/20 07:32:06;;;;;;;9.70;5.53;;;7.00;47.90;;;;;;5081096;28;20164;-64
2022/03/20 07:34:32;;;;;;;7.30;4.53;;;7.00;47.80;;;;;;5075845;28;20533;-64
2022/03/20 07:36:58;;;;;;;11.77;6.40;;;7.10;47.60;;;;;;5075959;28;20180;-63
2022/03/20 07:39:24;;;;;;;14.67;6.10;;;7.20;47.60;;;;;;5075499;28;20181;-64
2022/03/20 07:41:49;;;;;;;11.70;5.93;;;7.20;47.00;;;;;;5075735;28;20220;-64
2022/03/20 07:44:16;;;;;;;10.73;6.37;;;7.30;46.80;;;;;;5075642;28;20202;-64
2022/03/20 07:46:41;;;;;;;8.67;5.60;;;7.40;46.70;;;;;;5075659;28;20180;-63
2022/03/20 07:49:08;;;;;;;11.70;6.13;;;7.40;46.40;;;;;;5075981;28;20176;-63
2022/03/20 07:51:35;;;;;;;7.87;4.93;;;7.50;46.00;;;;;;5057755;28;20194;-64
2022/03/20 07:54:00;;;;;;;9.30;5.50;;;7.60;45.80;;;;;;5076055;28;20591;-63
2022/03/20 07:56:28;;;;;;;19.13;6.07;;;7.60;45.70;;;;;;5076210;28;20214;-64
2022/03/20 07:58:54;;;;;;;9.30;5.33;;;7.70;45.60;;;;;;5076269;28;20190;-64
2022/03/20 08:01:21;;;;;;;7.23;4.90;;;7.70;45.40;;;;;;5078273;28;20177;-68
2022/03/20 08:03:46;;;;;;;12.40;5.97;;;7.70;44.50;;;;;;5083809;28;20201;-63
2022/03/20 08:06:12;;;;;;;7.90;5.40;;;7.80;44.50;;;;;;5078760;28;20490;-64
2022/03/20 08:08:41;;;;;;;12.53;5.47;;;8.00;44.70;;;;;;5060721;28;20175;-64
2022/03/20 08:11:07;;;;;;;9.53;5.47;;;8.00;43.90;;;;;;5078236;28;20240;-64
2022/03/20 08:13:33;;;;;;;9.27;5.13;;;8.00;43.70;;;;;;5077307;28;20164;-65
2022/03/20 08:16:00;;;;;;;8.13;5.20;;;8.10;43.10;;;;;;5075471;28;20165;-62
2022/03/20 08:18:25;;;;;;;9.43;5.10;;;8.20;43.00;;;;;;5074972;28;20206;-63
2022/03/20 08:20:51;;;;;;;11.73;5.27;;;8.10;42.20;;;;;;5075725;28;20174;-63
2022/03/20 08:23:17;;;;;;;7.77;5.43;;;8.30;42.20;;;;;;5075327;28;20206;-64
2022/03/20 08:25:42;;;;;;;9.83;5.50;;;8.40;42.10;;;;;;5074457;28;20511;-65
2022/03/20 08:28:10;;;;;;;8.83;5.13;;;8.50;41.90;;;;;;5074717;28;20175;-64
2022/03/20 08:30:37;;;;;;;8.27;4.87;;;8.50;41.60;;;;;;5074620;28;20202;-65
2022/03/20 08:33:03;;;;;;;13.97;5.97;;;8.70;41.70;;;;;;5074978;28;20273;-64
2022/03/20 08:35:28;;;;;;;9.07;5.47;;;8.70;41.30;;;;;;5075159;28;20603;-63
2022/03/20 08:37:55;;;;;;;9.97;5.73;;;8.70;40.80;;;;;;5075410;28;20520;-63
2022/03/20 08:40:22;;;;;;;7.97;5.37;;;9.00;40.90;;;;;;5074332;28;20253;-64
2022/03/20 08:42:52;;;;;;;11.40;5.23;;;8.90;40.30;;;;;;5074379;28;20198;-64
2022/03/20 08:45:19;;;;;;;8.07;5.00;;;8.90;40.00;;;;;;5074657;28;20508;-64
2022/03/20 08:47:45;;;;;;;9.77;5.47;;;8.90;39.80;;;;;;5074716;28;20159;-63
2022/03/20 08:50:13;;;;;;;8.80;4.97;;;9.00;39.80;;;;;;5074622;28;20166;-64
2022/03/20 08:52:39;;;;;;;8.87;5.73;;;9.20;39.70;;;;;;5074929;28;20164;-64
2022/03/20 08:55:10;;;;;;;9.17;5.27;;;9.40;39.90;;;;;;5056552;28;20176;-64
2022/03/20 08:57:41;;;;;;;8.63;5.60;;;9.20;39.10;;;;;;5074816;28;20217;-64
2022/03/20 09:00:12;;;;;;;8.50;5.43;;;9.20;39.00;;;;;;5074070;28;20224;-65
2022/03/20 09:02:38;;;;;;;8.40;4.77;;;9.30;39.00;;;;;;5074092;28;20205;-65
2022/03/20 09:05:06;;;;;;;9.07;5.50;;;9.30;38.70;;;;;;5073909;28;20246;-64
2022/03/20 09:07:32;;;;;;;8.40;5.30;;;9.30;38.50;;;;;;5074202;28;20171;-64
2022/03/20 09:09:58;;;;;;;7.60;5.20;;;9.50;38.80;;;;;;5056356;28;20254;-63
2022/03/20 09:12:24;;;;;;;9.47;5.83;;;9.50;38.70;;;;;;5074760;28;20179;-64
2022/03/20 09:14:50;;;;;;;9.60;5.83;;;9.60;38.80;;;;;;5057152;28;20210;-64
2022/03/20 09:20:00;;;;;;;8.10;5.53;;;9.80;38.60;;;;;;5077416;28;20166;-64
2022/03/20 09:22:26;;;;;;;10.73;6.17;;;9.80;38.40;;;;;;5076682;28;20496;-64
2022/03/20 09:24:52;;;;;;;7.60;5.23;;;9.90;38.30;;;;;;5062314;28;20593;-66
2022/03/20 09:27:18;;;;;;;7.50;5.50;;;10.10;37.80;;;;;;5079351;28;20171;-63
2022/03/20 09:29:44;;;;;;;10.13;6.30;;;10.00;37.20;;;;;;5076447;28;20159;-64
2022/03/20 09:32:09;;;;;;;9.10;5.67;;;10.40;37.40;;;;;;5074248;28;20164;-64
2022/03/20 09:34:35;;;;;;;9.93;6.00;;;10.50;37.30;;;;;;5073301;28;20220;-64
2022/03/20 09:37:02;;;;;;;9.67;5.50;;;10.30;36.70;;;;;;5072779;28;20187;-62
2022/03/20 09:39:27;;;;;;;10.10;5.53;;;10.40;36.70;;;;;;5074131;28;20225;-63
2022/03/20 09:41:55;;;;;;;9.57;5.60;;;10.30;36.30;;;;;;5075090;28;20223;-62
2022/03/20 09:44:27;;;;;;;9.70;5.50;;;10.40;36.40;;;;;;5076001;28;20229;-65
2022/03/20 09:46:53;;;;;;;10.43;5.93;;;10.50;36.00;;;;;;5058137;28;20291;-63
2022/03/20 09:49:24;;;;;;;7.87;5.20;;;10.70;35.90;;;;;;5076708;28;20530;-62
2022/03/20 09:51:50;;;;;;;7.27;5.03;;;10.80;35.50;;;;;;5075981;28;20171;-64
2022/03/20 09:54:15;;;;;;;8.77;5.53;;;10.70;34.60;;;;;;5074713;28;20164;-62
2022/03/20 09:56:42;;;;;;;10.53;5.57;;;10.60;34.40;;;;;;5074713;28;20333;-63
2022/03/20 09:59:09;;;;;;;8.87;5.30;;;10.90;34.40;;;;;;5073891;28;20164;-63
2022/03/20 10:01:35;;;;;;;9.47;5.77;;;11.00;34.30;;;;;;5073449;28;20678;-63
2022/03/20 10:04:07;;;;;;;7.53;4.83;;;11.10;34.20;;;;;;5055790;28;20230;-62
2022/03/20 10:06:35;;;;;;;9.43;5.30;;;11.10;33.80;;;;;;5073789;28;20154;-63
2022/03/20 10:09:04;;;;;;;7.90;4.90;;;11.10;33.30;;;;;;5073169;28;20571;-63
2022/03/20 10:11:30;;;;;;;8.07;5.60;;;11.30;33.40;;;;;;5073888;28;20514;-64
2022/03/20 10:14:05;;;;;;;7.43;4.77;;;11.20;32.90;;;;;;5073482;28;20176;-62
2022/03/20 10:16:31;;;;;;;10.57;6.00;;;11.40;32.90;;;;;;5073109;28;20163;-64
2022/03/20 10:18:57;;;;;;;9.50;5.07;;;11.20;32.60;;;;;;5073245;28;20165;-63
2022/03/20 10:21:45;;;;;;;7.67;5.17;;;11.30;32.00;;;;;;5073014;28;20167;-63
2022/03/20 10:24:16;;;;;;;9.73;5.43;;;11.30;31.60;;;;;;5055365;28;20207;-63
2022/03/20 10:26:41;;;;;;;9.23;5.27;;;11.50;31.60;;;;;;5072548;28;20704;-62
2022/03/20 10:29:18;;;;;;;9.43;4.67;;;11.60;31.20;;;;;;5072910;28;20633;-63
2022/03/20 10:31:55;;;;;;;7.87;5.23;;;11.80;31.40;;;;;;5055199;28;20208;-63
2022/03/20 10:34:21;;;;;;;8.73;4.90;;;11.70;30.70;;;;;;5073015;28;20171;-64
2022/03/20 10:36:49;;;;;;;7.07;4.50;;;11.60;30.30;;;;;;5073055;28;20179;-64
2022/03/20 10:39:19;;;;;;;10.57;4.37;;;11.60;30.10;;;;;;5073044;28;20195;-65
2022/03/20 10:42:08;;;;;;;6.60;4.50;;;11.70;30.00;;;;;;5072753;28;20257;-63
2022/03/20 10:44:38;;;;;;;6.43;4.83;;;11.60;30.10;;;;;;5072822;28;20225;-64
2022/03/20 10:47:16;;;;;;;7.07;5.03;;;11.70;29.90;;;;;;5073142;28;20511;-63
2022/03/20 10:50:01;;;;;;;8.30;4.80;;;11.80;29.80;;;;;;5076706;28;20168;-66
2022/03/20 10:52:28;;;;;;;6.97;4.83;;;11.70;29.30;;;;;;5079521;28;20194;-63
2022/03/20 10:54:54;;;;;;;8.53;4.57;;;11.70;29.50;;;;;;5080758;28;20235;-64
2022/03/20 10:57:21;;;;;;;7.03;4.83;;;11.80;29.80;;;;;;5076882;28;20237;-63
2022/03/20 10:59:57;;;;;;;8.30;4.53;;;11.80;29.60;;;;;;5076737;28;20221;-63
2022/03/20 11:02:24;;;;;;;6.23;4.33;;;11.90;29.50;;;;;;5076525;28;20507;-65
2022/03/20 11:04:51;;;;;;;6.03;4.30;;;11.90;28.80;;;;;;5076941;28;20167;-64
2022/03/20 11:07:21;;;;;;;5.50;4.20;;;12.00;28.80;;;;;;5076292;28;20217;-64
2022/03/20 11:09:49;;;;;;;7.80;4.80;;;12.10;28.90;;;;;;5076220;28;20166;-62
2022/03/20 11:12:21;;;;;;;5.70;4.13;;;12.20;28.90;;;;;;5076637;28;20227;-63
2022/03/20 11:14:47;;;;;;;6.03;4.27;;;12.30;29.00;;;;;;5076108;28;20156;-64
2022/03/20 11:17:17;;;;;;;5.77;3.83;;;12.20;28.50;;;;;;5076330;28;20198;-63
2022/03/20 11:19:49;;;;;;;6.20;3.83;;;12.20;28.20;;;;;;5059684;28;20156;-64
2022/03/20 11:22:19;;;;;;;7.23;4.10;;;12.30;28.40;;;;;;5076398;28;20170;-64
2022/03/20 11:24:50;;;;;;;8.03;4.73;;;12.30;28.40;;;;;;5077406;28;20224;-63
2022/03/20 11:27:25;;;;;;;5.63;3.90;;;12.30;27.80;;;;;;5078614;28;20236;-63
2022/03/20 11:30:00;;;;;;;6.87;4.07;;;12.40;27.50;;;;;;5079625;28;20629;-64
2022/03/20 11:32:26;;;;;;;5.83;3.67;;;12.30;27.10;;;;;;5062007;28;20182;-63
2022/03/20 11:34:53;;;;;;;4.73;3.50;;;12.20;26.60;;;;;;5077119;28;20164;-63
2022/03/20 11:37:19;;;;;;;6.07;3.47;;;12.40;26.90;;;;;;5078033;28;20186;-63
2022/03/20 11:40:06;;;;;;;6.83;4.07;;;12.30;26.70;;;;;;5075836;28;20534;-65
2022/03/20 11:42:32;;;;;;;5.67;3.90;;;12.30;26.80;;;;;;5076072;28;20199;-64
2022/03/20 11:45:04;;;;;;;7.10;4.30;;;12.40;27.10;;;;;;5075905;28;20174;-63
2022/03/20 11:47:32;;;;;;;7.30;3.87;;;12.30;26.90;;;;;;5077337;28;20224;-64
2022/03/20 11:50:19;;;;;;;6.37;3.63;;;12.40;26.90;;;;;;5076939;28;20618;-63
2022/03/20 11:52:49;;;;;;;4.73;3.43;;;12.50;27.00;;;;;;5075308;28;20159;-64
2022/03/20 11:55:40;;;;;;;7.40;4.67;;;12.70;27.20;;;;;;5075210;28;20555;-64
2022/03/20 11:58:35;;;;;;;6.47;3.80;;;12.70;26.90;;;;;;5075231;28;20166;-64
2022/03/20 12:01:03;;;;;;;5.90;3.60;;;12.70;26.50;;;;;;5077263;28;20156;-63
2022/03/20 12:03:47;;;;;;;5.50;3.70;;;12.80;26.60;;;;;;5078568;28;20211;-64
2022/03/20 12:06:31;;;;;;;5.67;3.67;;;12.80;26.60;;;;;;5059163;28;20500;-64
2022/03/20 12:09:26;;;;;;;6.43;3.97;;;12.80;26.60;;;;;;5075554;28;20163;-63
2022/03/20 12:12:07;;;;;;;5.83;3.67;;;12.60;26.50;;;;;;5075982;28;20167;-64
2022/03/20 12:14:38;;;;;;;9.97;4.57;;;12.70;27.00;;;;;;5075927;28;20225;-64
2022/03/20 12:17:04;;;;;;;7.53;3.70;;;12.60;26.90;;;;;;5078191;28;20194;-64
2022/03/20 12:19:43;;;;;;;6.10;3.97;;;12.70;26.90;;;;;;5076828;28;20221;-64
2022/03/20 12:22:14;;;;;;;5.27;3.67;;;12.50;26.70;;;;;;5074225;28;20193;-63
2022/03/20 12:24:51;;;;;;;11.90;3.90;;;12.70;27.00;;;;;;5074381;28;20660;-64
2022/03/20 12:27:23;;;;;;;6.37;4.10;;;12.90;27.30;;;;;;5074727;28;20162;-65
2022/03/20 12:30:03;;;;;;;4.80;4.07;;;12.70;27.10;;;;;;5074592;28;20171;-63
2022/03/20 12:32:47;;;;;;;6.20;3.43;;;12.90;27.40;;;;;;5074094;28;20201;-64
2022/03/20 12:35:16;;;;;;;7.80;4.53;;;13.10;27.50;;;;;;5074975;28;20246;-63
2022/03/20 12:37:44;;;;;;;5.70;3.70;;;13.20;27.00;;;;;;5074551;28;20178;-63
2022/03/20 12:40:11;;;;;;;7.13;4.17;;;13.30;27.10;;;;;;5053253;28;20323;-65
2022/03/20 12:42:39;;;;;;;6.90;3.73;;;13.20;27.10;;;;;;5054547;28;20153;-65
2022/03/20 12:45:14;;;;;;;6.53;4.47;;;13.20;27.20;;;;;;5054893;28;20157;-66
2022/03/20 12:48:05;;;;;;;6.17;4.03;;;13.10;27.10;;;;;;5054316;28;20160;-65
2022/03/20 12:50:40;;;;;;;6.93;3.70;;;13.00;27.10;;;;;;5055193;28;20230;-66
2022/03/20 12:53:09;;;;;;;5.47;3.77;;;13.20;27.40;;;;;;5054571;28;20515;-66
2022/03/20 12:55:37;;;;;;;6.27;3.77;;;13.10;26.80;;;;;;5056334;28;20172;-66
2022/03/20 12:58:03;;;;;;;6.73;4.00;;;13.20;26.70;;;;;;5056687;28;20214;-66
2022/03/20 13:00:33;;;;;;;4.33;3.10;;;13.30;26.60;;;;;;5056490;28;20186;-66
2022/03/20 13:03:15;;;;;;;4.30;3.13;;;13.10;26.20;;;;;;5057029;28;20231;-66
2022/03/20 13:05:52;;;;;;;7.47;3.57;;;13.20;26.20;;;;;;5056318;28;20165;-66
2022/03/20 13:08:40;;;;;;;11.70;6.20;;;13.30;26.00;;;;;;5056019;28;20156;-64
2022/03/20 13:14:00;;;;;;;6.17;3.40;;;13.10;25.80;;;;;;5056343;28;20254;-66
2022/03/20 13:16:26;;;;;;;5.67;3.50;;;13.10;26.10;;;;;;5056298;28;20302;-65
2022/03/20 13:18:52;;;;;;;5.90;3.23;;;13.20;26.40;;;;;;5039726;28;20191;-65
2022/03/20 13:21:18;;;;;;;4.87;3.13;;;13.40;26.50;;;;;;5056411;28;20519;-63
2022/03/20 13:23:47;;;;;;;4.63;3.43;;;13.30;26.50;;;;;;5053505;28;20241;-64
2022/03/20 13:26:18;;;;;;;5.47;3.43;;;13.30;26.80;;;;;;5053944;28;20211;-65